createdAt,value
2018-07-09T00:01:22.165Z,16.55
2018-07-09T00:02:22.223Z,16.50
2018-07-09T00:03:22.284Z,16.42
2018-07-09T00:04:22.345Z,16.45
2018-07-09T00:05:22.405Z,16.40
2018-07-09T00:06:22.466Z,16.44
2018-07-09T00:07:22.525Z,16.44
2018-07-09T00:08:22.585Z,16.41
2018-07-09T00:09:22.645Z,16.47
2018-07-09T00:10:22.705Z,16.41
2018-07-09T00:11:22.766Z,16.47
2018-07-09T00:12:22.826Z,16.48
2018-07-09T00:13:22.886Z,16.37
2018-07-09T00:14:22.946Z,16.36
2018-07-09T00:15:23.007Z,16.32
2018-07-09T00:16:23.067Z,16.34
2018-07-09T00:17:23.124Z,16.26
2018-07-09T00:18:23.188Z,16.34
2018-07-09T00:19:23.248Z,16.32
2018-07-09T00:20:23.308Z,16.22
2018-07-09T00:21:23.369Z,16.16
2018-07-09T00:22:23.427Z,16.26
2018-07-09T00:23:23.487Z,16.22
2018-07-09T00:24:23.548Z,16.16
2018-07-09T00:25:23.607Z,16.30
2018-07-09T00:26:23.667Z,16.22
2018-07-09T00:27:23.728Z,16.07
2018-07-09T00:28:23.788Z,15.99
2018-07-09T00:29:23.846Z,15.80
2018-07-09T00:30:23.909Z,15.91
2018-07-09T00:31:23.970Z,15.95
2018-07-09T00:32:24.145Z,15.89
2018-07-09T00:33:24.091Z,15.88
2018-07-09T00:34:24.148Z,15.99
2018-07-09T00:35:24.208Z,15.88
2018-07-09T00:37:06.707Z,15.91
2018-07-09T00:38:06.767Z,15.73
2018-07-09T00:39:07.002Z,15.80
2018-07-09T00:40:06.888Z,15.62
2018-07-09T00:41:06.947Z,15.70
2018-07-09T00:43:29.565Z,15.78
2018-07-09T00:44:29.621Z,15.66
2018-07-09T00:45:29.684Z,15.80
2018-07-09T00:46:29.742Z,15.85
2018-07-09T00:47:29.801Z,15.81
2018-07-09T00:48:29.862Z,15.62
2018-07-09T00:49:29.921Z,15.73
2018-07-09T00:50:29.981Z,15.70
2018-07-09T00:51:30.042Z,15.71
2018-07-09T00:52:30.101Z,15.68
2018-07-09T00:53:30.160Z,15.60
2018-07-09T00:54:30.471Z,15.56
2018-07-09T00:55:30.281Z,15.56
2018-07-09T00:56:30.340Z,15.51
2018-07-09T00:57:30.400Z,15.53
2018-07-09T00:58:30.459Z,15.55
2018-07-09T00:59:30.520Z,15.52
2018-07-09T01:00:30.580Z,15.48
2018-07-09T01:01:30.640Z,15.44
2018-07-09T01:02:30.701Z,15.44
2018-07-09T01:03:30.759Z,15.46
2018-07-09T01:04:30.819Z,15.52
2018-07-09T01:05:30.879Z,15.46
2018-07-09T01:06:30.938Z,15.44
2018-07-09T01:07:30.998Z,15.49
2018-07-09T01:08:31.058Z,15.38
2018-07-09T01:09:31.124Z,15.27
2018-07-09T01:10:31.177Z,15.20
2018-07-09T01:11:31.236Z,15.30
2018-07-09T01:12:31.297Z,15.09
2018-07-09T01:13:31.357Z,15.13
2018-07-09T01:14:31.418Z,15.13
2018-07-09T01:15:31.476Z,15.01
2018-07-09T01:16:31.942Z,14.97
2018-07-09T01:17:31.597Z,14.98
2018-07-09T01:18:31.653Z,14.93
2018-07-09T01:20:29.250Z,14.94
2018-07-09T01:21:29.254Z,14.95
2018-07-09T01:22:29.316Z,14.95
2018-07-09T01:23:29.374Z,14.86
2018-07-09T01:24:29.434Z,14.87
2018-07-09T01:25:29.494Z,14.94
2018-07-09T01:26:29.555Z,14.87
2018-07-09T01:27:29.614Z,14.82
2018-07-09T01:28:29.673Z,14.86
2018-07-09T01:29:29.733Z,14.82
2018-07-09T01:30:29.793Z,14.85
2018-07-09T01:31:29.852Z,14.75
2018-07-09T01:32:30.722Z,14.78
2018-07-09T01:33:29.974Z,14.75
2018-07-09T01:34:30.032Z,14.75
2018-07-09T01:35:30.091Z,14.82
2018-07-09T01:36:30.151Z,14.72
2018-07-09T01:37:30.209Z,14.82
2018-07-09T01:38:30.269Z,14.82
2018-07-09T01:39:30.329Z,14.75
2018-07-09T01:40:30.388Z,14.67
2018-07-09T01:41:30.448Z,14.67
2018-07-09T01:42:30.508Z,14.66
2018-07-09T01:43:30.566Z,14.57
2018-07-09T01:44:30.627Z,14.64
2018-07-09T01:45:30.686Z,14.63
2018-07-09T01:46:30.746Z,14.63
2018-07-09T01:47:30.804Z,14.59
2018-07-09T01:48:30.866Z,14.64
2018-07-09T01:49:30.927Z,14.60
2018-07-09T01:50:30.985Z,14.63
2018-07-09T01:51:31.045Z,14.60
2018-07-09T01:52:31.102Z,14.66
2018-07-09T01:53:31.163Z,14.75
2018-07-09T01:54:31.225Z,14.64
2018-07-09T01:55:31.280Z,14.63
2018-07-09T01:56:31.341Z,14.61
2018-07-09T01:57:31.400Z,14.66
2018-07-09T01:58:31.460Z,14.59
2018-07-09T01:59:31.519Z,14.48
2018-07-09T02:00:31.581Z,14.52
2018-07-09T02:01:31.639Z,14.44
2018-07-09T02:02:31.698Z,14.41
2018-07-09T02:03:31.757Z,14.41
2018-07-09T02:04:31.816Z,14.36
2018-07-09T02:05:31.876Z,14.35
2018-07-09T02:06:31.936Z,14.30
2018-07-09T02:07:31.994Z,14.41
2018-07-09T02:08:32.055Z,14.36
2018-07-09T02:09:32.115Z,14.38
2018-07-09T02:10:32.174Z,14.30
2018-07-09T02:11:32.233Z,14.35
2018-07-09T02:12:32.292Z,14.36
2018-07-09T02:13:32.354Z,14.31
2018-07-09T02:14:32.411Z,14.30
2018-07-09T02:15:32.470Z,14.34
2018-07-09T02:16:32.529Z,14.23
2018-07-09T02:17:32.594Z,14.29
2018-07-09T02:18:32.649Z,14.38
2018-07-09T02:19:32.707Z,14.27
2018-07-09T02:20:32.833Z,14.31
2018-07-09T02:21:32.826Z,14.31
2018-07-09T02:22:32.886Z,14.24
2018-07-09T02:23:32.945Z,14.34
2018-07-09T02:24:33.005Z,14.21
2018-07-09T02:25:33.064Z,14.23
2018-07-09T02:26:33.123Z,14.11
2018-07-09T02:27:33.182Z,14.13
2018-07-09T02:28:33.244Z,14.09
2018-07-09T02:29:33.300Z,14.08
2018-07-09T02:30:33.360Z,13.98
2018-07-09T02:31:33.420Z,13.99
2018-07-09T02:32:33.479Z,13.91
2018-07-09T02:33:33.540Z,14.02
2018-07-09T02:34:33.601Z,13.86
2018-07-09T02:35:33.657Z,13.90
2018-07-09T02:36:33.716Z,13.99
2018-07-09T02:37:33.776Z,14.02
2018-07-09T02:38:33.836Z,14.19
2018-07-09T02:39:33.894Z,14.26
2018-07-09T02:40:33.956Z,14.34
2018-07-09T02:41:34.013Z,14.31
2018-07-09T02:42:34.072Z,14.27
2018-07-09T02:43:34.281Z,14.13
2018-07-09T02:44:34.191Z,14.09
2018-07-09T02:45:34.249Z,14.02
2018-07-09T02:46:34.309Z,14.02
2018-07-09T02:47:34.367Z,13.99
2018-07-09T02:48:34.428Z,14.01
2018-07-09T02:49:34.486Z,13.88
2018-07-09T02:50:34.545Z,13.87
2018-07-09T02:51:34.606Z,13.86
2018-07-09T02:52:34.665Z,13.80
2018-07-09T02:53:34.723Z,13.79
2018-07-09T02:54:34.782Z,13.76
2018-07-09T02:55:34.841Z,13.84
2018-07-09T02:56:34.900Z,13.66
2018-07-09T02:57:34.959Z,13.80
2018-07-09T02:58:35.018Z,13.83
2018-07-09T02:59:35.078Z,13.81
2018-07-09T03:00:35.135Z,13.91
2018-07-09T03:01:35.197Z,13.72
2018-07-09T03:02:35.256Z,13.75
2018-07-09T03:03:35.313Z,13.80
2018-07-09T03:04:35.375Z,13.66
2018-07-09T03:05:35.432Z,13.80
2018-07-09T03:06:35.499Z,13.72
2018-07-09T03:07:35.860Z,13.73
2018-07-09T03:08:35.608Z,13.72
2018-07-09T03:09:35.669Z,13.71
2018-07-09T03:10:35.729Z,13.73
2018-07-09T03:11:35.789Z,13.71
2018-07-09T03:12:35.847Z,13.72
2018-07-09T03:13:35.905Z,13.84
2018-07-09T03:14:35.963Z,13.83
2018-07-09T03:15:36.021Z,13.86
2018-07-09T03:16:36.082Z,13.86
2018-07-09T03:17:36.146Z,13.84
2018-07-09T03:18:36.201Z,13.83
2018-07-09T03:19:36.260Z,13.87
2018-07-09T03:20:36.318Z,13.81
2018-07-09T03:21:36.377Z,13.81
2018-07-09T03:22:36.438Z,13.71
2018-07-09T03:23:36.495Z,13.72
2018-07-09T03:24:36.554Z,13.65
2018-07-09T03:25:36.777Z,13.75
2018-07-09T03:26:36.673Z,13.57
2018-07-09T03:27:36.731Z,13.63
2018-07-09T03:28:36.790Z,13.66
2018-07-09T03:29:36.854Z,13.65
2018-07-09T03:30:36.909Z,13.61
2018-07-09T03:31:36.968Z,13.69
2018-07-09T03:32:37.028Z,13.65
2018-07-09T03:33:37.086Z,13.65
2018-07-09T03:34:37.145Z,13.71
2018-07-09T03:35:37.203Z,13.63
2018-07-09T03:36:37.263Z,13.65
2018-07-09T03:37:37.322Z,13.62
2018-07-09T03:38:37.381Z,13.65
2018-07-09T03:39:37.439Z,13.62
2018-07-09T03:40:37.498Z,13.57
2018-07-09T03:41:37.557Z,13.61
2018-07-09T03:42:37.620Z,13.62
2018-07-09T03:43:37.674Z,13.68
2018-07-09T03:44:37.738Z,13.69
2018-07-09T03:45:37.793Z,13.71
2018-07-09T03:46:37.857Z,13.80
2018-07-09T03:47:37.911Z,13.88
2018-07-09T03:48:37.970Z,13.80
2018-07-09T03:49:38.030Z,13.86
2018-07-09T03:50:38.088Z,13.79
2018-07-09T03:51:38.147Z,13.71
2018-07-09T03:52:38.206Z,13.68
2018-07-09T03:53:38.265Z,13.69
2018-07-09T03:54:38.324Z,13.66
2018-07-09T03:55:38.382Z,13.66
2018-07-09T03:56:38.441Z,13.66
2018-07-09T03:57:38.500Z,13.61
2018-07-09T03:58:38.562Z,13.62
2018-07-09T03:59:38.619Z,13.59
2018-07-09T04:00:38.693Z,13.69
2018-07-09T04:01:38.737Z,13.66
2018-07-09T04:02:38.795Z,13.62
2018-07-09T04:03:38.854Z,13.69
2018-07-09T04:04:38.912Z,13.63
2018-07-09T04:05:38.972Z,13.69
2018-07-09T04:06:39.031Z,13.72
2018-07-09T04:07:39.090Z,13.65
2018-07-09T04:08:39.149Z,13.65
2018-07-09T04:09:39.208Z,13.63
2018-07-09T04:10:39.266Z,13.79
2018-07-09T04:11:39.325Z,13.66
2018-07-09T04:12:39.384Z,13.83
2018-07-09T04:13:39.444Z,13.72
2018-07-09T04:14:39.508Z,13.80
2018-07-09T04:15:39.563Z,13.88
2018-07-09T04:16:39.620Z,13.83
2018-07-09T04:17:39.684Z,13.80
2018-07-09T04:18:39.739Z,13.76
2018-07-09T04:19:39.798Z,13.83
2018-07-09T04:20:39.857Z,13.80
2018-07-09T04:21:39.916Z,13.83
2018-07-09T04:22:39.976Z,13.88
2018-07-09T04:23:40.038Z,13.83
2018-07-09T04:24:40.093Z,13.80
2018-07-09T04:25:40.152Z,13.71
2018-07-09T04:26:40.211Z,13.66
2018-07-09T04:27:40.268Z,13.73
2018-07-09T04:28:40.333Z,13.68
2018-07-09T04:29:40.391Z,13.75
2018-07-09T04:30:40.448Z,13.66
2018-07-09T04:31:40.519Z,13.73
2018-07-09T04:32:40.566Z,13.71
2018-07-09T04:33:40.627Z,13.81
2018-07-09T04:34:40.685Z,13.81
2018-07-09T04:35:40.742Z,13.79
2018-07-09T04:36:40.802Z,13.76
2018-07-09T04:37:40.873Z,13.81
2018-07-09T04:38:40.920Z,13.81
2018-07-09T04:39:40.979Z,13.80
2018-07-09T04:40:41.038Z,13.81
2018-07-09T04:41:41.098Z,13.83
2018-07-09T04:42:41.407Z,13.84
2018-07-09T04:43:41.215Z,13.87
2018-07-09T04:44:41.275Z,13.88
2018-07-09T04:45:41.333Z,13.87
2018-07-09T04:46:41.394Z,13.87
2018-07-09T04:47:41.452Z,13.96
2018-07-09T04:48:41.511Z,14.04
2018-07-09T04:49:41.571Z,13.98
2018-07-09T04:50:41.631Z,14.06
2018-07-09T04:51:41.692Z,13.98
2018-07-09T04:52:41.747Z,14.02
2018-07-09T04:53:41.809Z,14.02
2018-07-09T04:54:41.868Z,14.09
2018-07-09T04:55:41.926Z,14.24
2018-07-09T04:56:41.986Z,14.16
2018-07-09T04:57:42.045Z,14.31
2018-07-09T04:58:42.104Z,14.30
2018-07-09T04:59:42.163Z,14.31
2018-07-09T05:00:42.225Z,14.26
2018-07-09T05:01:42.284Z,14.31
2018-07-09T05:02:42.342Z,14.44
2018-07-09T05:03:42.400Z,14.44
2018-07-09T05:04:42.461Z,14.46
2018-07-09T05:05:42.622Z,14.48
2018-07-09T05:06:42.580Z,14.52
2018-07-09T05:07:42.638Z,14.42
2018-07-09T05:08:42.698Z,14.39
2018-07-09T05:09:42.757Z,14.41
2018-07-09T05:10:42.818Z,14.42
2018-07-09T05:11:42.876Z,14.36
2018-07-09T05:12:42.936Z,14.46
2018-07-09T05:13:42.995Z,14.57
2018-07-09T05:14:43.055Z,14.64
2018-07-09T05:15:43.112Z,14.64
2018-07-09T05:16:43.174Z,14.64
2018-07-09T05:17:43.234Z,14.71
2018-07-09T05:18:43.294Z,14.82
2018-07-09T05:19:43.352Z,14.82
2018-07-09T05:20:43.492Z,14.94
2018-07-09T05:21:43.472Z,14.90
2018-07-09T05:22:43.532Z,15.09
2018-07-09T05:23:43.591Z,15.18
2018-07-09T05:24:43.651Z,15.20
2018-07-09T05:25:43.711Z,15.30
2018-07-09T05:26:43.771Z,15.35
2018-07-09T05:27:43.829Z,15.35
2018-07-09T05:28:43.896Z,15.38
2018-07-09T05:29:43.949Z,15.37
2018-07-09T05:30:44.010Z,15.40
2018-07-09T05:31:44.068Z,15.33
2018-07-09T05:32:44.128Z,15.46
2018-07-09T05:33:44.187Z,15.51
2018-07-09T05:34:44.248Z,15.51
2018-07-09T05:35:44.308Z,15.48
2018-07-09T05:36:44.370Z,15.51
2018-07-09T05:37:44.428Z,15.67
2018-07-09T05:38:44.488Z,15.84
2018-07-09T05:39:44.546Z,15.76
2018-07-09T05:40:44.607Z,15.77
2018-07-09T05:41:44.668Z,15.76
2018-07-09T05:42:44.727Z,15.80
2018-07-09T05:43:44.786Z,15.88
2018-07-09T05:44:44.847Z,15.92
2018-07-09T05:45:44.910Z,15.93
2018-07-09T05:46:44.967Z,15.95
2018-07-09T05:47:45.031Z,16.04
2018-07-09T05:48:45.090Z,16.13
2018-07-09T05:49:45.148Z,16.18
2018-07-09T05:50:47.830Z,16.23
2018-07-09T05:51:45.268Z,16.30
2018-07-09T05:52:45.328Z,16.34
2018-07-09T05:53:45.388Z,16.32
2018-07-09T05:54:45.462Z,16.40
2018-07-09T05:55:45.509Z,16.41
2018-07-09T05:56:45.570Z,16.45
2018-07-09T05:57:45.629Z,16.48
2018-07-09T05:58:45.690Z,16.48
2018-07-09T05:59:45.749Z,16.50
2018-07-09T06:00:45.812Z,16.52
2018-07-09T06:01:45.871Z,16.52
2018-07-09T06:02:45.931Z,16.54
2018-07-09T06:03:45.991Z,16.55
2018-07-09T06:04:46.052Z,16.62
2018-07-09T06:05:46.112Z,16.55
2018-07-09T06:06:46.173Z,16.67
2018-07-09T06:07:46.233Z,16.70
2018-07-09T06:08:46.294Z,16.78
2018-07-09T06:09:46.354Z,16.81
2018-07-09T06:10:46.415Z,16.85
2018-07-09T06:11:46.475Z,16.92
2018-07-09T06:12:46.536Z,16.98
2018-07-09T06:13:46.597Z,16.98
2018-07-09T06:14:46.658Z,17.03
2018-07-09T06:15:46.720Z,17.20
2018-07-09T06:16:46.779Z,17.24
2018-07-09T06:17:46.843Z,17.22
2018-07-09T06:18:46.903Z,17.32
2018-07-09T06:19:47.006Z,17.35
2018-07-09T06:20:47.021Z,17.40
2018-07-09T06:21:47.082Z,17.49
2018-07-09T06:22:47.144Z,17.54
2018-07-09T06:23:47.203Z,17.53
2018-07-09T06:24:47.263Z,17.63
2018-07-09T06:25:47.325Z,17.58
2018-07-09T06:26:47.387Z,17.66
2018-07-09T06:27:47.447Z,17.74
2018-07-09T06:28:47.507Z,17.80
2018-07-09T06:29:47.570Z,17.84
2018-07-09T06:30:47.631Z,17.86
2018-07-09T06:31:47.691Z,17.92
2018-07-09T06:32:47.752Z,17.86
2018-07-09T06:33:47.813Z,17.96
2018-07-09T06:34:47.879Z,18.09
2018-07-09T06:35:47.935Z,18.23
2018-07-09T06:36:47.997Z,18.25
2018-07-09T06:37:48.059Z,18.26
2018-07-09T06:38:48.839Z,18.38
2018-07-09T06:39:48.185Z,18.60
2018-07-09T06:40:48.493Z,18.68
2018-07-09T06:41:48.311Z,18.74
2018-07-09T06:42:48.366Z,18.83
2018-07-09T06:43:48.427Z,18.83
2018-07-09T06:44:48.555Z,18.94
2018-07-09T06:45:48.551Z,18.91
2018-07-09T06:46:48.614Z,19.05
2018-07-09T06:47:48.677Z,19.15
2018-07-09T06:48:48.737Z,19.25
2018-07-09T06:49:48.799Z,19.31
2018-07-09T06:50:48.861Z,19.28
2018-07-09T06:51:48.927Z,19.31
2018-07-09T06:52:48.986Z,19.13
2018-07-09T06:53:49.049Z,19.23
2018-07-09T06:54:49.111Z,19.12
2018-07-09T06:55:49.175Z,19.10
2018-07-09T06:56:49.236Z,19.16
2018-07-09T06:57:49.300Z,19.20
2018-07-09T06:58:49.363Z,19.43
2018-07-09T06:59:49.423Z,19.53
2018-07-09T07:00:49.487Z,19.47
2018-07-09T07:01:49.551Z,19.45
2018-07-09T07:02:49.611Z,19.46
2018-07-09T07:03:49.674Z,19.57
2018-07-09T07:04:49.738Z,19.67
2018-07-09T07:05:49.799Z,19.78
2018-07-09T07:06:49.863Z,19.89
2018-07-09T07:07:49.925Z,19.98
2018-07-09T07:08:50.063Z,19.94
2018-07-09T07:09:50.052Z,20.02
2018-07-09T07:10:50.114Z,20.05
2018-07-09T07:11:50.177Z,20.20
2018-07-09T07:12:50.239Z,20.19
2018-07-09T07:13:50.307Z,20.33
2018-07-09T07:14:50.369Z,20.40
2018-07-09T07:15:50.429Z,20.51
2018-07-09T07:16:50.493Z,20.57
2018-07-09T07:17:50.557Z,20.58
2018-07-09T07:18:50.628Z,20.64
2018-07-09T07:19:50.682Z,20.72
2018-07-09T07:20:50.745Z,20.82
2018-07-09T07:21:50.809Z,20.98
2018-07-09T07:22:50.873Z,20.96
2018-07-09T07:23:50.935Z,21.18
2018-07-09T07:24:50.999Z,21.27
2018-07-09T07:25:51.063Z,21.36
2018-07-09T07:26:51.126Z,21.40
2018-07-09T07:27:51.188Z,21.49
2018-07-09T07:28:51.500Z,21.67
2018-07-09T07:29:51.317Z,21.75
2018-07-09T07:30:51.378Z,21.67
2018-07-09T07:31:51.442Z,21.66
2018-07-09T07:32:51.576Z,21.79
2018-07-09T07:33:51.574Z,21.85
2018-07-09T07:34:51.634Z,22.08
2018-07-09T07:35:51.697Z,22.06
2018-07-09T07:36:51.788Z,22.06
2018-07-09T07:37:51.825Z,21.98
2018-07-09T07:38:51.889Z,21.94
2018-07-09T07:39:51.951Z,21.98
2018-07-09T07:40:52.017Z,21.96
2018-07-09T07:41:52.080Z,21.89
2018-07-09T07:42:52.145Z,21.73
2018-07-09T07:43:52.210Z,21.93
2018-07-09T07:44:52.335Z,21.85
2018-07-09T07:45:52.334Z,21.93
2018-07-09T07:46:52.398Z,21.90
2018-07-09T07:47:52.461Z,21.90
2018-07-09T07:48:52.525Z,21.99
2018-07-09T07:49:52.588Z,21.86
2018-07-09T07:50:52.654Z,21.75
2018-07-09T07:51:52.715Z,21.52
2018-07-09T07:52:52.779Z,21.61
2018-07-09T07:53:52.843Z,21.43
2018-07-09T07:54:52.906Z,21.24
2018-07-09T07:55:52.993Z,21.18
2018-07-09T07:56:53.033Z,21.22
2018-07-09T07:57:53.096Z,21.34
2018-07-09T07:58:53.160Z,21.46
2018-07-09T07:59:53.222Z,21.61
2018-07-09T08:00:53.286Z,21.59
2018-07-09T08:01:53.349Z,21.55
2018-07-09T08:02:53.479Z,21.74
2018-07-09T08:03:53.481Z,21.73
2018-07-09T08:04:53.538Z,21.75
2018-07-09T08:05:53.602Z,21.96
2018-07-09T08:06:53.680Z,22.04
2018-07-09T08:07:53.728Z,22.11
2018-07-09T08:08:53.791Z,22.11
2018-07-09T08:09:53.856Z,22.14
2018-07-09T08:10:53.919Z,22.21
2018-07-09T08:11:54.627Z,22.20
2018-07-09T08:13:26.877Z,22.27
2018-07-09T08:13:54.108Z,22.15
2018-07-09T08:14:54.171Z,21.91
2018-07-09T08:15:54.245Z,21.98
2018-07-09T08:16:54.299Z,21.91
2018-07-09T08:17:54.366Z,22.12
2018-07-09T08:18:54.423Z,22.12
2018-07-09T08:19:54.490Z,22.15
2018-07-09T08:20:54.549Z,22.14
2018-07-09T08:21:54.625Z,22.08
2018-07-09T08:22:54.677Z,22.17
2018-07-09T08:23:54.740Z,22.12
2018-07-09T08:24:55.226Z,22.17
2018-07-09T08:25:54.879Z,22.20
2018-07-09T08:26:54.930Z,22.14
2018-07-09T08:27:54.994Z,22.09
2018-07-09T08:28:55.055Z,22.24
2018-07-09T08:29:55.119Z,22.24
2018-07-09T08:30:55.182Z,22.29
2018-07-09T08:31:55.246Z,22.21
2018-07-09T08:32:55.309Z,22.26
2018-07-09T08:33:55.373Z,22.29
2018-07-09T08:34:55.437Z,22.35
2018-07-09T08:35:55.498Z,22.41
2018-07-09T08:36:55.561Z,22.49
2018-07-09T08:37:55.629Z,22.42
2018-07-09T08:38:55.688Z,22.36
2018-07-09T08:39:55.752Z,22.29
2018-07-09T08:40:55.817Z,22.39
2018-07-09T08:41:55.882Z,22.38
2018-07-09T08:42:55.941Z,22.30
2018-07-09T08:43:56.006Z,22.33
2018-07-09T08:44:56.068Z,22.52
2018-07-09T08:45:56.130Z,22.76
2018-07-09T08:46:56.197Z,22.66
2018-07-09T08:47:56.256Z,22.75
2018-07-09T08:48:56.320Z,22.74
2018-07-09T08:49:56.388Z,22.75
2018-07-09T08:50:56.448Z,22.63
2018-07-09T08:51:56.511Z,22.74
2018-07-09T08:52:56.574Z,22.64
2018-07-09T08:53:56.638Z,22.59
2018-07-09T08:54:56.704Z,22.70
2018-07-09T08:55:56.764Z,22.86
2018-07-09T08:56:56.829Z,23.09
2018-07-09T08:57:56.893Z,23.07
2018-07-09T08:58:56.955Z,22.86
2018-07-09T08:59:57.016Z,22.99
2018-07-09T09:00:57.080Z,22.91
2018-07-09T09:01:57.151Z,22.97
2018-07-09T09:02:57.209Z,23.11
2018-07-09T09:03:57.273Z,23.09
2018-07-09T09:04:57.335Z,23.04
2018-07-09T09:05:57.398Z,22.88
2018-07-09T09:06:57.464Z,22.63
2018-07-09T09:07:57.528Z,22.78
2018-07-09T09:08:57.589Z,22.84
2018-07-09T09:09:57.661Z,22.99
2018-07-09T09:10:57.717Z,23.06
2018-07-09T09:11:57.780Z,23.26
2018-07-09T09:12:57.845Z,23.26
2018-07-09T09:13:57.907Z,23.29
2018-07-09T09:14:57.972Z,23.38
2018-07-09T09:15:58.039Z,23.29
2018-07-09T09:16:58.105Z,23.26
2018-07-09T09:17:58.162Z,23.39
2018-07-09T09:18:58.228Z,23.47
2018-07-09T09:19:58.297Z,23.25
2018-07-09T09:20:58.353Z,23.03
2018-07-09T09:21:58.416Z,23.11
2018-07-09T09:22:58.481Z,23.34
2018-07-09T09:23:58.544Z,23.37
2018-07-09T09:24:58.609Z,23.50
2018-07-09T09:25:58.672Z,23.69
2018-07-09T09:26:58.736Z,23.78
2018-07-09T09:27:58.823Z,23.89
2018-07-09T09:28:58.864Z,24.15
2018-07-09T09:29:58.928Z,24.30
2018-07-09T09:30:58.993Z,24.30
2018-07-09T09:31:59.054Z,24.41
2018-07-09T09:32:59.119Z,24.31
2018-07-09T09:33:59.184Z,24.33
2018-07-09T09:34:59.249Z,24.49
2018-07-09T09:35:59.316Z,24.37
2018-07-09T09:36:59.378Z,24.49
2018-07-09T09:37:59.442Z,24.42
2018-07-09T09:38:59.507Z,24.45
2018-07-09T09:39:59.570Z,24.12
2018-07-09T09:40:59.637Z,24.11
2018-07-09T09:41:59.700Z,24.30
2018-07-09T09:42:59.769Z,24.30
2018-07-09T09:43:59.829Z,24.31
2018-07-09T09:44:59.893Z,24.42
2018-07-09T09:45:59.958Z,24.53
2018-07-09T09:47:00.025Z,24.52
2018-07-09T09:48:00.088Z,24.60
2018-07-09T09:49:00.151Z,24.51
2018-07-09T09:50:00.217Z,24.51
2018-07-09T09:51:00.283Z,24.60
2018-07-09T09:52:00.347Z,24.87
2018-07-09T09:53:00.414Z,24.74
2018-07-09T09:54:00.478Z,24.82
2018-07-09T09:55:00.599Z,24.79
2018-07-09T09:56:00.628Z,24.74
2018-07-09T09:57:00.672Z,24.67
2018-07-09T09:58:00.738Z,24.56
2018-07-09T09:59:00.804Z,24.45
2018-07-09T10:00:00.875Z,24.59
2018-07-09T10:01:00.934Z,24.59
2018-07-09T10:02:01.002Z,24.75
2018-07-09T10:03:01.065Z,24.83
2018-07-09T10:04:01.129Z,25.08
2018-07-09T10:05:01.198Z,25.29
2018-07-09T10:06:01.261Z,25.56
2018-07-09T10:07:01.327Z,25.53
2018-07-09T10:08:01.392Z,25.57
2018-07-09T10:09:01.459Z,25.66
2018-07-09T10:10:01.525Z,25.66
2018-07-09T10:11:01.595Z,25.54
2018-07-09T10:12:01.659Z,25.41
2018-07-09T10:13:01.726Z,25.44
2018-07-09T10:14:01.794Z,25.39
2018-07-09T10:15:01.862Z,24.93
2018-07-09T10:16:01.927Z,24.92
2018-07-09T10:17:01.998Z,24.86
2018-07-09T10:18:02.072Z,24.89
2018-07-09T10:19:02.133Z,24.89
2018-07-09T10:20:02.203Z,24.64
2018-07-09T10:21:02.272Z,24.87
2018-07-09T10:22:02.341Z,25.27
2018-07-09T10:23:02.445Z,25.76
2018-07-09T10:24:02.480Z,26.06
2018-07-09T10:25:02.551Z,26.20
2018-07-09T10:26:02.621Z,25.93
2018-07-09T10:27:02.691Z,26.21
2018-07-09T10:28:02.761Z,26.21
2018-07-09T10:29:02.833Z,26.20
2018-07-09T10:30:02.905Z,26.04
2018-07-09T10:31:02.975Z,26.64
2018-07-09T10:32:03.046Z,27.12
2018-07-09T10:33:03.117Z,27.76
2018-07-09T10:34:03.189Z,27.98
2018-07-09T10:35:03.261Z,28.15
2018-07-09T10:36:03.334Z,27.50
2018-07-09T10:37:03.404Z,26.98
2018-07-09T10:38:03.477Z,26.90
2018-07-09T10:39:03.550Z,26.69
2018-07-09T10:40:03.621Z,27.25
2018-07-09T10:41:03.695Z,27.74
2018-07-09T10:42:03.767Z,27.61
2018-07-09T10:43:03.840Z,27.18
2018-07-09T10:44:03.912Z,27.68
2018-07-09T10:45:03.986Z,26.81
2018-07-09T10:46:04.060Z,26.98
2018-07-09T10:47:04.135Z,27.33
2018-07-09T10:48:04.208Z,27.49
2018-07-09T10:49:04.275Z,27.53
2018-07-09T10:50:04.347Z,26.93
2018-07-09T10:51:04.433Z,26.96
2018-07-09T10:52:04.491Z,26.51
2018-07-09T10:53:04.564Z,26.12
2018-07-09T10:54:04.636Z,25.64
2018-07-09T10:55:04.763Z,25.41
2018-07-09T10:56:04.782Z,25.91
2018-07-09T10:57:04.883Z,26.57
2018-07-09T10:58:04.940Z,26.73
2018-07-09T10:59:05.014Z,26.97
2018-07-09T11:00:05.069Z,26.97
2018-07-09T11:01:05.399Z,26.49
2018-07-09T11:02:05.216Z,26.17
2018-07-09T11:03:05.286Z,25.82
2018-07-09T11:04:05.356Z,26.36
2018-07-09T11:05:05.427Z,27.15
2018-07-09T11:06:05.498Z,27.01
2018-07-09T11:07:05.571Z,27.35
2018-07-09T11:08:05.642Z,27.05
2018-07-09T11:09:05.715Z,26.88
2018-07-09T11:10:05.789Z,27.05
2018-07-09T11:11:05.860Z,27.53
2018-07-09T11:12:05.928Z,28.21
2018-07-09T11:13:06.000Z,27.45
2018-07-09T11:14:06.072Z,27.31
2018-07-09T11:15:06.144Z,26.79
2018-07-09T11:16:06.216Z,26.49
2018-07-09T11:17:06.288Z,26.34
2018-07-09T11:18:06.361Z,27.35
2018-07-09T11:19:06.432Z,27.27
2018-07-09T11:20:06.504Z,27.23
2018-07-09T11:21:06.827Z,27.53
2018-07-09T11:22:06.650Z,28.15
2018-07-09T11:23:06.722Z,28.48
2018-07-09T11:24:06.794Z,28.21
2018-07-09T11:25:06.867Z,28.54
2018-07-09T11:26:06.946Z,28.95
2018-07-09T11:27:07.011Z,29.12
2018-07-09T11:28:07.082Z,29.30
2018-07-09T11:29:07.166Z,29.36
2018-07-09T11:30:07.231Z,29.18
2018-07-09T11:31:07.304Z,28.18
2018-07-09T11:32:07.376Z,27.49
2018-07-09T11:33:07.450Z,27.65
2018-07-09T11:34:07.528Z,28.06
2018-07-09T11:35:07.597Z,28.70
2018-07-09T11:36:07.743Z,29.35
2018-07-09T11:37:07.748Z,29.86
2018-07-09T11:38:07.821Z,29.36
2018-07-09T11:39:07.892Z,29.33
2018-07-09T11:40:07.965Z,29.67
2018-07-09T11:41:08.040Z,28.58
2018-07-09T11:42:08.155Z,27.95
2018-07-09T11:43:08.190Z,27.35
2018-07-09T11:44:08.263Z,28.20
2018-07-09T11:45:08.339Z,28.65
2018-07-09T11:46:08.411Z,28.35
2018-07-09T11:47:08.483Z,27.84
2018-07-09T11:48:08.556Z,28.45
2018-07-09T11:49:08.627Z,28.38
2018-07-09T11:50:08.706Z,28.50
2018-07-09T11:51:08.773Z,28.14
2018-07-09T11:52:08.860Z,28.18
2018-07-09T11:53:08.919Z,29.00
2018-07-09T11:54:08.996Z,29.08
2018-07-09T11:55:09.066Z,29.07
2018-07-09T11:56:09.138Z,28.62
2018-07-09T11:57:09.209Z,29.08
2018-07-09T11:58:09.284Z,29.71
2018-07-09T11:59:09.360Z,30.00
2018-07-09T12:00:09.432Z,29.44
2018-07-09T12:01:09.815Z,29.81
2018-07-09T12:02:09.580Z,29.63
2018-07-09T12:03:09.654Z,29.36
2018-07-09T12:04:09.727Z,29.52
2018-07-09T12:05:09.805Z,29.47
2018-07-09T12:06:09.876Z,28.69
2018-07-09T12:07:09.951Z,28.23
2018-07-09T12:08:10.025Z,28.79
2018-07-09T12:09:10.098Z,29.42
2018-07-09T12:10:10.173Z,29.41
2018-07-09T12:11:10.247Z,30.06
2018-07-09T12:12:10.323Z,29.47
2018-07-09T12:13:10.398Z,29.47
2018-07-09T12:14:10.469Z,28.95
2018-07-09T12:15:10.544Z,28.72
2018-07-09T12:16:10.618Z,28.38
2018-07-09T12:17:10.692Z,28.46
2018-07-09T12:18:11.016Z,28.60
2018-07-09T12:19:10.840Z,28.89
2018-07-09T12:20:10.915Z,29.73
2018-07-09T12:21:10.989Z,29.41
2018-07-09T12:22:11.061Z,29.51
2018-07-09T12:23:11.138Z,29.76
2018-07-09T12:24:11.212Z,29.42
2018-07-09T12:25:11.282Z,28.58
2018-07-09T12:26:11.357Z,28.38
2018-07-09T12:27:11.431Z,28.24
2018-07-09T12:28:11.503Z,28.38
2018-07-09T12:29:11.778Z,28.28
2018-07-09T12:30:11.652Z,28.36
2018-07-09T12:31:11.726Z,28.38
2018-07-09T12:32:11.798Z,29.10
2018-07-09T12:33:11.875Z,29.30
2018-07-09T12:34:11.946Z,29.44
2018-07-09T12:35:12.019Z,29.03
2018-07-09T12:36:12.104Z,29.11
2018-07-09T12:37:12.167Z,28.20
2018-07-09T12:38:12.239Z,28.33
2018-07-09T12:39:12.312Z,28.28
2018-07-09T12:40:12.386Z,28.67
2018-07-09T12:41:12.458Z,29.08
2018-07-09T12:42:12.548Z,29.17
2018-07-09T12:43:12.605Z,28.97
2018-07-09T12:44:12.677Z,27.88
2018-07-09T12:45:12.757Z,28.64
2018-07-09T12:46:12.824Z,29.39
2018-07-09T12:47:12.896Z,29.88
2018-07-09T12:48:12.970Z,29.84
2018-07-09T12:49:13.041Z,29.86
2018-07-09T12:50:13.114Z,30.08
2018-07-09T12:51:13.185Z,29.47
2018-07-09T12:52:13.258Z,28.33
2018-07-09T12:53:13.332Z,28.30
2018-07-09T12:54:13.409Z,27.33
2018-07-09T12:55:13.476Z,27.27
2018-07-09T12:56:13.548Z,27.49
2018-07-09T12:57:13.620Z,27.78